Terminal Aerodrome Forecast
Issued by NWS Knoxville/Tri Cities, TN

Home | Current Version | Previous Version | Text Only | Print | Product List | Glossary On
Versions: 1 2 3 4 5 6 7 8 9 10 11 12 13 14
000
FTUS44 KMRX 241122
TAFTRI
TAF
KTRI 241122Z 2412/2512 VRB03KT P6SM FEW200
     FM241800 24005KT P6SM FEW060
     FM250100 00000KT P6SM SCT150
     FM250600 00000KT P6SM SCT040 BKN120
     FM251000 VRB05KT P6SM VCSH SCT030 BKN050=

USA.gov is the U.S. government's official web portal to all federal, state and local government web resources and services.